sensor_id;sensor_type;location;lat;lon;timestamp;temperature;humidity
65470;DHT22;52067;50.710;14.492;2023-10-08T00:02:03;18.43;67.54
65470;DHT22;52067;50.710;14.492;2023-10-08T00:04:28;18.50;66.91
65470;DHT22;52067;50.710;14.492;2023-10-08T00:06:54;18.48;67.32
65470;DHT22;52067;50.710;14.492;2023-10-08T00:09:20;18.50;66.88
65470;DHT22;52067;50.710;14.492;2023-10-08T00:11:46;18.50;67.06
65470;DHT22;52067;50.710;14.492;2023-10-08T00:14:17;18.39;67.92
65470;DHT22;52067;50.710;14.492;2023-10-08T00:16:47;18.49;67.31
65470;DHT22;52067;50.710;14.492;2023-10-08T00:19:15;18.50;67.29
65470;DHT22;52067;50.710;14.492;2023-10-08T00:21:43;18.48;67.19
65470;DHT22;52067;50.710;14.492;2023-10-08T00:24:10;18.40;67.53
65470;DHT22;52067;50.710;14.492;2023-10-08T00:26:35;18.39;68.45
65470;DHT22;52067;50.710;14.492;2023-10-08T00:29:06;18.40;67.55
65470;DHT22;52067;50.710;14.492;2023-10-08T00:31:40;18.39;67.89
65470;DHT22;52067;50.710;14.492;2023-10-08T00:34:06;18.38;67.72
65470;DHT22;52067;50.710;14.492;2023-10-08T00:36:33;18.36;68.16
65470;DHT22;52067;50.710;14.492;2023-10-08T00:38:59;18.39;68.25
65470;DHT22;52067;50.710;14.492;2023-10-08T00:41:25;18.36;68.57
65470;DHT22;52067;50.710;14.492;2023-10-08T00:43:56;18.32;68.69
65470;DHT22;52067;50.710;14.492;2023-10-08T00:46:22;18.16;70.10
65470;DHT22;52067;50.710;14.492;2023-10-08T00:48:52;18.04;70.60
65470;DHT22;52067;50.710;14.492;2023-10-08T00:51:22;18.01;71.13
65470;DHT22;52067;50.710;14.492;2023-10-08T00:54:02;17.90;71.38
65470;DHT22;52067;50.710;14.492;2023-10-08T00:56:46;17.80;72.58
65470;DHT22;52067;50.710;14.492;2023-10-08T00:59:15;17.69;72.90
65470;DHT22;52067;50.710;14.492;2023-10-08T01:01:45;17.53;74.39
65470;DHT22;52067;50.710;14.492;2023-10-08T01:04:21;17.27;76.25
65470;DHT22;52067;50.710;14.492;2023-10-08T01:06:53;16.99;77.43
65470;DHT22;52067;50.710;14.492;2023-10-08T01:09:25;16.84;78.36
65470;DHT22;52067;50.710;14.492;2023-10-08T01:12:16;16.86;78.19
65470;DHT22;52067;50.710;14.492;2023-10-08T01:14:45;16.84;78.62
65470;DHT22;52067;50.710;14.492;2023-10-08T01:17:13;16.81;78.67
65470;DHT22;52067;50.710;14.492;2023-10-08T01:19:42;16.67;79.34
65470;DHT22;52067;50.710;14.492;2023-10-08T01:22:11;16.81;79.14
65470;DHT22;52067;50.710;14.492;2023-10-08T01:24:42;16.72;79.38
65470;DHT22;52067;50.710;14.492;2023-10-08T01:27:08;16.72;79.96
65470;DHT22;52067;50.710;14.492;2023-10-08T01:29:38;16.68;80.45
65470;DHT22;52067;50.710;14.492;2023-10-08T01:32:03;16.55;81.12
65470;DHT22;52067;50.710;14.492;2023-10-08T01:34:35;16.45;82.28
65470;DHT22;52067;50.710;14.492;2023-10-08T01:37:02;16.44;82.53
65470;DHT22;52067;50.710;14.492;2023-10-08T01:39:35;16.48;82.24
65470;DHT22;52067;50.710;14.492;2023-10-08T01:42:00;16.26;83.41
65470;DHT22;52067;50.710;14.492;2023-10-08T01:44:26;16.28;83.22
65470;DHT22;52067;50.710;14.492;2023-10-08T01:46:52;16.03;84.69
65470;DHT22;52067;50.710;14.492;2023-10-08T01:49:18;16.07;84.67
65470;DHT22;52067;50.710;14.492;2023-10-08T01:51:47;16.06;85.00
65470;DHT22;52067;50.710;14.492;2023-10-08T01:54:13;16.02;85.08
65470;DHT22;52067;50.710;14.492;2023-10-08T01:56:41;15.88;85.74
65470;DHT22;52067;50.710;14.492;2023-10-08T01:59:08;15.85;85.72
65470;DHT22;52067;50.710;14.492;2023-10-08T02:01:34;15.73;86.14
65470;DHT22;52067;50.710;14.492;2023-10-08T02:04:00;15.76;86.19
65470;DHT22;52067;50.710;14.492;2023-10-08T02:06:27;15.65;87.08
65470;DHT22;52067;50.710;14.492;2023-10-08T02:08:52;15.62;87.36
65470;DHT22;52067;50.710;14.492;2023-10-08T02:11:18;15.62;87.17
65470;DHT22;52067;50.710;14.492;2023-10-08T02:13:45;15.59;87.38
65470;DHT22;52067;50.710;14.492;2023-10-08T02:16:17;15.52;87.94
65470;DHT22;52067;50.710;14.492;2023-10-08T02:18:43;15.41;88.47
65470;DHT22;52067;50.710;14.492;2023-10-08T02:21:09;15.49;88.28
65470;DHT22;52067;50.710;14.492;2023-10-08T02:23:36;15.47;88.42
65470;DHT22;52067;50.710;14.492;2023-10-08T02:26:01;15.45;88.45
65470;DHT22;52067;50.710;14.492;2023-10-08T02:28:27;15.47;88.60
65470;DHT22;52067;50.710;14.492;2023-10-08T02:30:53;15.54;88.58
65470;DHT22;52067;50.710;14.492;2023-10-08T02:33:19;15.58;88.60
65470;DHT22;52067;50.710;14.492;2023-10-08T02:35:46;15.52;88.85
65470;DHT22;52067;50.710;14.492;2023-10-08T02:38:14;15.59;88.79
65470;DHT22;52067;50.710;14.492;2023-10-08T02:40:42;15.54;88.76
65470;DHT22;52067;50.710;14.492;2023-10-08T02:43:13;15.47;88.98
65470;DHT22;52067;50.710;14.492;2023-10-08T02:45:43;15.38;89.70
65470;DHT22;52067;50.710;14.492;2023-10-08T02:48:12;15.42;89.44
65470;DHT22;52067;50.710;14.492;2023-10-08T02:50:39;15.48;89.33
65470;DHT22;52067;50.710;14.492;2023-10-08T02:53:07;15.54;89.33
65470;DHT22;52067;50.710;14.492;2023-10-08T02:55:39;15.35;89.49
65470;DHT22;52067;50.710;14.492;2023-10-08T02:58:12;14.79;87.94
65470;DHT22;52067;50.710;14.492;2023-10-08T03:00:44;14.24;88.70
65470;DHT22;52067;50.710;14.492;2023-10-08T03:03:12;13.81;88.16
65470;DHT22;52067;50.710;14.492;2023-10-08T03:05:45;13.63;88.48
65470;DHT22;52067;50.710;14.492;2023-10-08T03:08:12;13.62;88.53
65470;DHT22;52067;50.710;14.492;2023-10-08T03:10:38;13.47;88.48
65470;DHT22;52067;50.710;14.492;2023-10-08T03:13:05;13.35;88.42
65470;DHT22;52067;50.710;14.492;2023-10-08T03:15:31;13.27;87.82
65470;DHT22;52067;50.710;14.492;2023-10-08T03:18:04;12.94;87.89
65470;DHT22;52067;50.710;14.492;2023-10-08T03:20:39;12.67;88.37
65470;DHT22;52067;50.710;14.492;2023-10-08T03:23:09;12.53;88.18
65470;DHT22;52067;50.710;14.492;2023-10-08T03:25:54;12.40;88.48
65470;DHT22;52067;50.710;14.492;2023-10-08T03:28:27;12.33;87.91
65470;DHT22;52067;50.710;14.492;2023-10-08T03:30:56;12.29;87.76
65470;DHT22;52067;50.710;14.492;2023-10-08T03:33:30;12.33;87.39
65470;DHT22;52067;50.710;14.492;2023-10-08T03:36:06;12.26;88.14
65470;DHT22;52067;50.710;14.492;2023-10-08T03:38:39;12.32;87.25
65470;DHT22;52067;50.710;14.492;2023-10-08T03:41:16;12.30;87.08
65470;DHT22;52067;50.710;14.492;2023-10-08T03:43:44;12.33;87.36
65470;DHT22;52067;50.710;14.492;2023-10-08T03:46:32;12.40;87.22
65470;DHT22;52067;50.710;14.492;2023-10-08T03:49:04;12.44;87.51
65470;DHT22;52067;50.710;14.492;2023-10-08T03:51:32;12.41;88.08
65470;DHT22;52067;50.710;14.492;2023-10-08T03:54:05;12.33;87.95
65470;DHT22;52067;50.710;14.492;2023-10-08T03:56:44;12.44;87.10
65470;DHT22;52067;50.710;14.492;2023-10-08T03:59:17;12.25;88.64
65470;DHT22;52067;50.710;14.492;2023-10-08T04:01:59;12.13;89.18
65470;DHT22;52067;50.710;14.492;2023-10-08T04:04:35;12.05;88.94
65470;DHT22;52067;50.710;14.492;2023-10-08T04:07:20;11.74;88.40
65470;DHT22;52067;50.710;14.492;2023-10-08T04:09:50;11.64;88.39
65470;DHT22;52067;50.710;14.492;2023-10-08T04:12:24;11.51;88.25
65470;DHT22;52067;50.710;14.492;2023-10-08T04:14:52;11.34;88.36
65470;DHT22;52067;50.710;14.492;2023-10-08T04:17:21;11.38;87.44
65470;DHT22;52067;50.710;14.492;2023-10-08T04:19:48;11.13;87.09
65470;DHT22;52067;50.710;14.492;2023-10-08T04:22:13;10.92;88.09
65470;DHT22;52067;50.710;14.492;2023-10-08T04:24:43;10.84;87.82
65470;DHT22;52067;50.710;14.492;2023-10-08T04:27:09;10.77;88.40
65470;DHT22;52067;50.710;14.492;2023-10-08T04:29:35;10.62;89.08
65470;DHT22;52067;50.710;14.492;2023-10-08T04:32:03;10.53;88.51
65470;DHT22;52067;50.710;14.492;2023-10-08T04:34:37;10.63;88.77
65470;DHT22;52067;50.710;14.492;2023-10-08T04:37:02;10.53;89.01
65470;DHT22;52067;50.710;14.492;2023-10-08T04:39:30;10.61;88.69
65470;DHT22;52067;50.710;14.492;2023-10-08T04:42:02;10.65;88.31
65470;DHT22;52067;50.710;14.492;2023-10-08T04:44:38;10.46;88.50
65470;DHT22;52067;50.710;14.492;2023-10-08T04:47:05;10.44;88.74
65470;DHT22;52067;50.710;14.492;2023-10-08T04:49:32;10.40;89.05
65470;DHT22;52067;50.710;14.492;2023-10-08T04:52:06;10.28;88.38
65470;DHT22;52067;50.710;14.492;2023-10-08T04:54:40;10.34;88.79
65470;DHT22;52067;50.710;14.492;2023-10-08T04:57:07;10.24;88.58
65470;DHT22;52067;50.710;14.492;2023-10-08T04:59:43;10.51;88.09
65470;DHT22;52067;50.710;14.492;2023-10-08T05:02:10;10.55;88.04
65470;DHT22;52067;50.710;14.492;2023-10-08T05:04:41;10.45;87.26
65470;DHT22;52067;50.710;14.492;2023-10-08T05:07:25;10.45;87.39
65470;DHT22;52067;50.710;14.492;2023-10-08T05:10:09;10.11;88.36
65470;DHT22;52067;50.710;14.492;2023-10-08T05:12:34;10.04;87.88
65470;DHT22;52067;50.710;14.492;2023-10-08T05:15:06;10.14;88.09
65470;DHT22;52067;50.710;14.492;2023-10-08T05:17:41;9.98;88.22
65470;DHT22;52067;50.710;14.492;2023-10-08T05:20:18;9.77;89.01
65470;DHT22;52067;50.710;14.492;2023-10-08T05:23:07;9.77;89.21
65470;DHT22;52067;50.710;14.492;2023-10-08T05:25:49;9.73;89.07
65470;DHT22;52067;50.710;14.492;2023-10-08T05:28:34;9.74;88.76
65470;DHT22;52067;50.710;14.492;2023-10-08T05:31:23;9.93;87.42
65470;DHT22;52067;50.710;14.492;2023-10-08T05:34:07;9.79;88.37
65470;DHT22;52067;50.710;14.492;2023-10-08T05:36:58;9.64;87.75
65470;DHT22;52067;50.710;14.492;2023-10-08T05:39:29;9.67;88.43
65470;DHT22;52067;50.710;14.492;2023-10-08T05:41:55;9.50;88.43
65470;DHT22;52067;50.710;14.492;2023-10-08T05:44:41;9.47;89.01
65470;DHT22;52067;50.710;14.492;2023-10-08T05:47:14;9.64;87.02
65470;DHT22;52067;50.710;14.492;2023-10-08T05:49:58;9.60;87.44
65470;DHT22;52067;50.710;14.492;2023-10-08T05:52:46;9.70;86.25
65470;DHT22;52067;50.710;14.492;2023-10-08T05:55:25;9.56;88.11
65470;DHT22;52067;50.710;14.492;2023-10-08T05:57:55;9.62;88.34
65470;DHT22;52067;50.710;14.492;2023-10-08T06:00:43;9.45;88.06
65470;DHT22;52067;50.710;14.492;2023-10-08T06:03:26;9.49;87.63
65470;DHT22;52067;50.710;14.492;2023-10-08T06:06:08;9.43;87.97
65470;DHT22;52067;50.710;14.492;2023-10-08T06:08:39;9.59;87.72
65470;DHT22;52067;50.710;14.492;2023-10-08T06:11:23;9.60;87.51
65470;DHT22;52067;50.710;14.492;2023-10-08T06:14:04;9.56;87.78
65470;DHT22;52067;50.710;14.492;2023-10-08T06:16:41;9.34;86.81
65470;DHT22;52067;50.710;14.492;2023-10-08T06:19:08;9.29;86.97
65470;DHT22;52067;50.710;14.492;2023-10-08T06:21:36;9.11;88.23
65470;DHT22;52067;50.710;14.492;2023-10-08T06:24:03;9.04;88.32
65470;DHT22;52067;50.710;14.492;2023-10-08T06:26:37;9.10;87.87
65470;DHT22;52067;50.710;14.492;2023-10-08T06:29:14;9.29;86.10
65470;DHT22;52067;50.710;14.492;2023-10-08T06:32:01;9.49;87.10
65470;DHT22;52067;50.710;14.492;2023-10-08T06:34:30;9.62;88.09
65470;DHT22;52067;50.710;14.492;2023-10-08T06:36:58;9.69;87.06
65470;DHT22;52067;50.710;14.492;2023-10-08T06:39:25;9.42;87.69
65470;DHT22;52067;50.710;14.492;2023-10-08T06:41:53;9.64;87.15
65470;DHT22;52067;50.710;14.492;2023-10-08T06:44:18;9.70;85.78
65470;DHT22;52067;50.710;14.492;2023-10-08T06:46:44;9.79;86.17
65470;DHT22;52067;50.710;14.492;2023-10-08T06:49:11;9.83;85.51
65470;DHT22;52067;50.710;14.492;2023-10-08T06:51:40;9.84;85.99
65470;DHT22;52067;50.710;14.492;2023-10-08T06:54:09;10.01;85.63
65470;DHT22;52067;50.710;14.492;2023-10-08T06:56:46;10.00;84.85
65470;DHT22;52067;50.710;14.492;2023-10-08T06:59:15;9.97;84.60
65470;DHT22;52067;50.710;14.492;2023-10-08T07:01:42;9.97;85.06
65470;DHT22;52067;50.710;14.492;2023-10-08T07:04:11;9.86;85.64
65470;DHT22;52067;50.710;14.492;2023-10-08T07:06:41;10.03;85.83
65470;DHT22;52067;50.710;14.492;2023-10-08T07:09:09;9.98;84.96
65470;DHT22;52067;50.710;14.492;2023-10-08T07:11:54;10.12;85.08
65470;DHT22;52067;50.710;14.492;2023-10-08T07:14:24;10.14;86.16
65470;DHT22;52067;50.710;14.492;2023-10-08T07:16:55;10.22;85.44
65470;DHT22;52067;50.710;14.492;2023-10-08T07:19:24;10.30;86.50
65470;DHT22;52067;50.710;14.492;2023-10-08T07:21:59;10.44;86.65
65470;DHT22;52067;50.710;14.492;2023-10-08T07:24:30;10.77;85.00
65470;DHT22;52067;50.710;14.492;2023-10-08T07:27:01;10.68;85.05
65470;DHT22;52067;50.710;14.492;2023-10-08T07:29:27;10.86;83.74
65470;DHT22;52067;50.710;14.492;2023-10-08T07:31:53;10.68;85.30
65470;DHT22;52067;50.710;14.492;2023-10-08T07:34:19;10.73;85.41
65470;DHT22;52067;50.710;14.492;2023-10-08T07:36:51;10.93;84.32
65470;DHT22;52067;50.710;14.492;2023-10-08T07:39:18;10.90;84.18
65470;DHT22;52067;50.710;14.492;2023-10-08T07:41:50;10.88;84.75
65470;DHT22;52067;50.710;14.492;2023-10-08T07:44:15;11.14;82.72
65470;DHT22;52067;50.710;14.492;2023-10-08T07:46:41;10.76;84.56
65470;DHT22;52067;50.710;14.492;2023-10-08T07:49:06;10.83;84.54
65470;DHT22;52067;50.710;14.492;2023-10-08T07:51:32;11.06;84.17
65470;DHT22;52067;50.710;14.492;2023-10-08T07:53:58;10.90;84.42
65470;DHT22;52067;50.710;14.492;2023-10-08T07:56:24;10.66;86.08
65470;DHT22;52067;50.710;14.492;2023-10-08T07:58:53;10.88;84.60
65470;DHT22;52067;50.710;14.492;2023-10-08T08:01:23;11.07;85.11
65470;DHT22;52067;50.710;14.492;2023-10-08T08:03:50;11.44;83.40
65470;DHT22;52067;50.710;14.492;2023-10-08T08:06:15;11.50;82.24
65470;DHT22;52067;50.710;14.492;2023-10-08T08:08:41;11.59;83.27
65470;DHT22;52067;50.710;14.492;2023-10-08T08:11:08;11.59;81.87
65470;DHT22;52067;50.710;14.492;2023-10-08T08:13:43;11.35;81.66
65470;DHT22;52067;50.710;14.492;2023-10-08T08:16:10;11.28;83.20
65470;DHT22;52067;50.710;14.492;2023-10-08T08:18:45;10.93;84.03
65470;DHT22;52067;50.710;14.492;2023-10-08T08:21:12;10.62;86.83
65470;DHT22;52067;50.710;14.492;2023-10-08T08:23:44;11.00;85.13
65470;DHT22;52067;50.710;14.492;2023-10-08T08:26:16;10.68;85.28
65470;DHT22;52067;50.710;14.492;2023-10-08T08:28:59;10.97;84.53
65470;DHT22;52067;50.710;14.492;2023-10-08T08:31:27;10.93;83.73
65470;DHT22;52067;50.710;14.492;2023-10-08T08:33:57;10.82;83.50
65470;DHT22;52067;50.710;14.492;2023-10-08T08:36:26;10.75;84.21
65470;DHT22;52067;50.710;14.492;2023-10-08T08:38:52;10.49;86.48
65470;DHT22;52067;50.710;14.492;2023-10-08T08:41:18;10.45;85.50
65470;DHT22;52067;50.710;14.492;2023-10-08T08:43:50;10.44;85.98
65470;DHT22;52067;50.710;14.492;2023-10-08T08:46:28;10.68;86.24
65470;DHT22;52067;50.710;14.492;2023-10-08T08:48:55;10.48;87.26
65470;DHT22;52067;50.710;14.492;2023-10-08T08:51:23;10.20;88.09
65470;DHT22;52067;50.710;14.492;2023-10-08T08:53:49;10.45;88.49
65470;DHT22;52067;50.710;14.492;2023-10-08T08:56:15;10.42;88.34
65470;DHT22;52067;50.710;14.492;2023-10-08T08:58:41;10.35;88.11
65470;DHT22;52067;50.710;14.492;2023-10-08T09:01:10;10.62;87.84
65470;DHT22;52067;50.710;14.492;2023-10-08T09:03:38;10.83;87.24
65470;DHT22;52067;50.710;14.492;2023-10-08T09:06:05;10.66;87.23
65470;DHT22;52067;50.710;14.492;2023-10-08T09:08:35;10.71;87.91
65470;DHT22;52067;50.710;14.492;2023-10-08T09:11:00;10.76;86.04
65470;DHT22;52067;50.710;14.492;2023-10-08T09:13:27;10.86;86.30
65470;DHT22;52067;50.710;14.492;2023-10-08T09:16:18;10.90;85.44
65470;DHT22;52067;50.710;14.492;2023-10-08T09:18:44;11.09;85.07
65470;DHT22;52067;50.710;14.492;2023-10-08T09:21:19;11.11;86.28
65470;DHT22;52067;50.710;14.492;2023-10-08T09:23:50;10.97;86.02
65470;DHT22;52067;50.710;14.492;2023-10-08T09:26:25;11.21;84.89
65470;DHT22;52067;50.710;14.492;2023-10-08T09:28:50;11.37;85.39
65470;DHT22;52067;50.710;14.492;2023-10-08T09:31:18;11.47;83.68
65470;DHT22;52067;50.710;14.492;2023-10-08T09:33:53;11.65;83.71
65470;DHT22;52067;50.710;14.492;2023-10-08T09:36:19;11.58;83.90
65470;DHT22;52067;50.710;14.492;2023-10-08T09:38:46;11.82;85.16
65470;DHT22;52067;50.710;14.492;2023-10-08T09:41:17;12.03;84.41
65470;DHT22;52067;50.710;14.492;2023-10-08T09:43:46;12.09;81.71
65470;DHT22;52067;50.710;14.492;2023-10-08T09:46:19;11.86;84.63
65470;DHT22;52067;50.710;14.492;2023-10-08T09:48:51;12.16;81.74
65470;DHT22;52067;50.710;14.492;2023-10-08T09:51:20;12.50;80.98
65470;DHT22;52067;50.710;14.492;2023-10-08T09:54:11;12.25;82.01
65470;DHT22;52067;50.710;14.492;2023-10-08T09:56:40;12.75;80.37
65470;DHT22;52067;50.710;14.492;2023-10-08T09:59:07;12.80;81.50
65470;DHT22;52067;50.710;14.492;2023-10-08T10:01:37;12.85;80.01
65470;DHT22;52067;50.710;14.492;2023-10-08T10:04:10;12.88;80.53
65470;DHT22;52067;50.710;14.492;2023-10-08T10:06:37;13.36;77.36
65470;DHT22;52067;50.710;14.492;2023-10-08T10:09:04;13.42;76.20
65470;DHT22;52067;50.710;14.492;2023-10-08T10:11:33;12.65;78.80
65470;DHT22;52067;50.710;14.492;2023-10-08T10:14:00;12.26;79.87
65470;DHT22;52067;50.710;14.492;2023-10-08T10:16:25;12.88;80.05
65470;DHT22;52067;50.710;14.492;2023-10-08T10:18:55;12.92;79.98
65470;DHT22;52067;50.710;14.492;2023-10-08T10:21:29;13.02;77.72
65470;DHT22;52067;50.710;14.492;2023-10-08T10:23:55;12.61;78.53
65470;DHT22;52067;50.710;14.492;2023-10-08T10:26:27;12.69;77.26
65470;DHT22;52067;50.710;14.492;2023-10-08T10:31:43;12.84;79.50
65470;DHT22;52067;50.710;14.492;2023-10-08T10:34:13;13.87;74.40
65470;DHT22;52067;50.710;14.492;2023-10-08T10:36:42;14.41;71.40
65470;DHT22;52067;50.710;14.492;2023-10-08T10:39:10;14.12;73.14
65470;DHT22;52067;50.710;14.492;2023-10-08T10:41:45;13.84;77.00
65470;DHT22;52067;50.710;14.492;2023-10-08T10:44:15;14.35;75.74
65470;DHT22;52067;50.710;14.492;2023-10-08T10:46:45;14.72;71.69
65470;DHT22;52067;50.710;14.492;2023-10-08T10:49:19;14.76;70.57
65470;DHT22;52067;50.710;14.492;2023-10-08T10:51:50;15.65;67.79
65470;DHT22;52067;50.710;14.492;2023-10-08T10:54:25;14.63;68.99
65470;DHT22;52067;50.710;14.492;2023-10-08T10:56:52;14.86;69.95
65470;DHT22;52067;50.710;14.492;2023-10-08T10:59:38;15.78;66.86
65470;DHT22;52067;50.710;14.492;2023-10-08T11:02:04;17.39;65.00
65470;DHT22;52067;50.710;14.492;2023-10-08T11:04:36;20.38;56.48
65470;DHT22;52067;50.710;14.492;2023-10-08T11:07:20;19.68;53.29
65470;DHT22;52067;50.710;14.492;2023-10-08T11:09:51;18.73;54.06
65470;DHT22;52067;50.710;14.492;2023-10-08T11:12:18;16.74;60.44
65470;DHT22;52067;50.710;14.492;2023-10-08T11:14:57;15.68;62.65
65470;DHT22;52067;50.710;14.492;2023-10-08T11:17:25;15.97;64.36
65470;DHT22;52067;50.710;14.492;2023-10-08T11:19:54;16.10;64.06
65470;DHT22;52067;50.710;14.492;2023-10-08T11:22:20;16.37;61.03
65470;DHT22;52067;50.710;14.492;2023-10-08T11:24:48;16.48;61.22
65470;DHT22;52067;50.710;14.492;2023-10-08T11:27:18;16.03;62.53
65470;DHT22;52067;50.710;14.492;2023-10-08T11:29:54;14.43;68.40
65470;DHT22;52067;50.710;14.492;2023-10-08T11:32:24;14.59;68.23
65470;DHT22;52067;50.710;14.492;2023-10-08T11:34:59;13.94;69.00
65470;DHT22;52067;50.710;14.492;2023-10-08T11:37:32;14.10;67.52
65470;DHT22;52067;50.710;14.492;2023-10-08T11:40:02;13.70;70.95
65470;DHT22;52067;50.710;14.492;2023-10-08T11:42:42;13.70;70.28
65470;DHT22;52067;50.710;14.492;2023-10-08T11:45:10;14.07;69.28
65470;DHT22;52067;50.710;14.492;2023-10-08T11:47:58;14.33;68.46
65470;DHT22;52067;50.710;14.492;2023-10-08T11:50:28;13.95;68.97
65470;DHT22;52067;50.710;14.492;2023-10-08T11:52:58;14.24;70.89
65470;DHT22;52067;50.710;14.492;2023-10-08T11:55:28;13.97;70.63
65470;DHT22;52067;50.710;14.492;2023-10-08T11:57:53;13.95;70.17
65470;DHT22;52067;50.710;14.492;2023-10-08T12:00:19;15.11;67.18
65470;DHT22;52067;50.710;14.492;2023-10-08T12:02:46;16.94;58.99
65470;DHT22;52067;50.710;14.492;2023-10-08T12:05:11;18.12;54.21
65470;DHT22;52067;50.710;14.492;2023-10-08T12:07:46;18.71;55.72
65470;DHT22;52067;50.710;14.492;2023-10-08T12:10:12;18.67;52.28
65470;DHT22;52067;50.710;14.492;2023-10-08T12:12:37;18.28;52.59
65470;DHT22;52067;50.710;14.492;2023-10-08T12:15:03;18.24;52.53
65470;DHT22;52067;50.710;14.492;2023-10-08T12:17:29;18.06;53.45
65470;DHT22;52067;50.710;14.492;2023-10-08T12:20:04;17.77;53.56
65470;DHT22;52067;50.710;14.492;2023-10-08T12:22:37;18.28;53.95
65470;DHT22;52067;50.710;14.492;2023-10-08T12:25:03;18.84;51.12
65470;DHT22;52067;50.710;14.492;2023-10-08T12:27:32;19.73;48.36
65470;DHT22;52067;50.710;14.492;2023-10-08T12:29:58;19.55;49.15
65470;DHT22;52067;50.710;14.492;2023-10-08T12:32:24;18.04;52.78
65470;DHT22;52067;50.710;14.492;2023-10-08T12:34:51;18.32;55.77
65470;DHT22;52067;50.710;14.492;2023-10-08T12:37:19;20.47;48.64
65470;DHT22;52067;50.710;14.492;2023-10-08T12:39:44;20.52;43.26
65470;DHT22;52067;50.710;14.492;2023-10-08T12:42:26;22.01;42.03
65470;DHT22;52067;50.710;14.492;2023-10-08T12:44:52;19.62;49.11
65470;DHT22;52067;50.710;14.492;2023-10-08T12:47:17;18.06;49.51
65470;DHT22;52067;50.710;14.492;2023-10-08T12:49:43;16.53;54.49
65470;DHT22;52067;50.710;14.492;2023-10-08T12:52:11;16.30;56.58
65470;DHT22;52067;50.710;14.492;2023-10-08T12:54:39;16.13;59.04
65470;DHT22;52067;50.710;14.492;2023-10-08T12:57:10;17.16;55.48
65470;DHT22;52067;50.710;14.492;2023-10-08T12:59:35;17.09;56.09
65470;DHT22;52067;50.710;14.492;2023-10-08T13:02:01;16.75;57.00
65470;DHT22;52067;50.710;14.492;2023-10-08T13:04:32;16.47;58.25
65470;DHT22;52067;50.710;14.492;2023-10-08T13:07:00;17.87;52.80
65470;DHT22;52067;50.710;14.492;2023-10-08T13:09:30;18.55;52.87
65470;DHT22;52067;50.710;14.492;2023-10-08T13:12:02;17.73;54.43
65470;DHT22;52067;50.710;14.492;2023-10-08T13:14:27;19.79;49.01
65470;DHT22;52067;50.710;14.492;2023-10-08T13:16:53;19.24;49.26
65470;DHT22;52067;50.710;14.492;2023-10-08T13:19:19;20.12;48.93
65470;DHT22;52067;50.710;14.492;2023-10-08T13:21:45;19.27;48.10
65470;DHT22;52067;50.710;14.492;2023-10-08T13:24:10;18.97;49.43
65470;DHT22;52067;50.710;14.492;2023-10-08T13:26:37;18.66;50.66
65470;DHT22;52067;50.710;14.492;2023-10-08T13:29:03;18.80;49.51
65470;DHT22;52067;50.710;14.492;2023-10-08T13:31:28;19.61;48.34
65470;DHT22;52067;50.710;14.492;2023-10-08T13:33:54;15.90;57.46
65470;DHT22;52067;50.710;14.492;2023-10-08T13:36:21;16.21;55.65
65470;DHT22;52067;50.710;14.492;2023-10-08T13:38:47;18.05;53.64
65470;DHT22;52067;50.710;14.492;2023-10-08T13:41:12;18.18;50.44
65470;DHT22;52067;50.710;14.492;2023-10-08T13:43:46;21.22;44.15
65470;DHT22;52067;50.710;14.492;2023-10-08T13:46:16;20.81;46.11
65470;DHT22;52067;50.710;14.492;2023-10-08T13:48:43;21.80;44.40
65470;DHT22;52067;50.710;14.492;2023-10-08T13:51:12;21.90;42.57
65470;DHT22;52067;50.710;14.492;2023-10-08T13:53:48;17.91;51.66
65470;DHT22;52067;50.710;14.492;2023-10-08T13:56:18;18.18;50.14
65470;DHT22;52067;50.710;14.492;2023-10-08T13:58:44;19.28;47.48
65470;DHT22;52067;50.710;14.492;2023-10-08T14:01:12;20.38;46.04
65470;DHT22;52067;50.710;14.492;2023-10-08T14:03:53;21.75;41.85
65470;DHT22;52067;50.710;14.492;2023-10-08T14:06:21;18.91;46.86
65470;DHT22;52067;50.710;14.492;2023-10-08T14:08:47;20.65;44.01
65470;DHT22;52067;50.710;14.492;2023-10-08T14:11:20;20.89;42.53
65470;DHT22;52067;50.710;14.492;2023-10-08T14:13:52;19.61;45.52
65470;DHT22;52067;50.710;14.492;2023-10-08T14:16:18;19.56;46.39
65470;DHT22;52067;50.710;14.492;2023-10-08T14:18:51;18.96;48.67
65470;DHT22;52067;50.710;14.492;2023-10-08T14:21:20;19.69;48.76
65470;DHT22;52067;50.710;14.492;2023-10-08T14:23:50;20.75;45.65
65470;DHT22;52067;50.710;14.492;2023-10-08T14:26:18;21.37;43.03
65470;DHT22;52067;50.710;14.492;2023-10-08T14:28:47;22.12;39.73
65470;DHT22;52067;50.710;14.492;2023-10-08T14:31:20;22.57;39.78
65470;DHT22;52067;50.710;14.492;2023-10-08T14:33:50;22.78;38.94
65470;DHT22;52067;50.710;14.492;2023-10-08T14:36:25;22.36;39.64
65470;DHT22;52067;50.710;14.492;2023-10-08T14:39:09;22.13;40.60
65470;DHT22;52067;50.710;14.492;2023-10-08T14:41:53;22.28;38.33
65470;DHT22;52067;50.710;14.492;2023-10-08T14:44:37;20.49;43.20
65470;DHT22;52067;50.710;14.492;2023-10-08T14:47:04;21.88;40.74
65470;DHT22;52067;50.710;14.492;2023-10-08T14:49:30;19.69;45.56
65470;DHT22;52067;50.710;14.492;2023-10-08T14:51:55;20.48;42.84
65470;DHT22;52067;50.710;14.492;2023-10-08T14:54:20;20.41;42.26
65470;DHT22;52067;50.710;14.492;2023-10-08T14:56:46;19.07;44.46
65470;DHT22;52067;50.710;14.492;2023-10-08T14:59:12;17.74;47.62
65470;DHT22;52067;50.710;14.492;2023-10-08T15:01:37;17.63;48.75
65470;DHT22;52067;50.710;14.492;2023-10-08T15:04:04;17.16;50.75
65470;DHT22;52067;50.710;14.492;2023-10-08T15:06:31;16.60;50.68
65470;DHT22;52067;50.710;14.492;2023-10-08T15:08:57;14.89;56.00
65470;DHT22;52067;50.710;14.492;2023-10-08T15:11:23;15.41;54.33
65470;DHT22;52067;50.710;14.492;2023-10-08T15:13:50;15.04;56.06
65470;DHT22;52067;50.710;14.492;2023-10-08T15:16:19;15.03;55.54
65470;DHT22;52067;50.710;14.492;2023-10-08T15:18:48;14.25;60.62
65470;DHT22;52067;50.710;14.492;2023-10-08T15:21:14;14.17;59.32
65470;DHT22;52067;50.710;14.492;2023-10-08T15:23:40;14.84;56.68
65470;DHT22;52067;50.710;14.492;2023-10-08T15:26:06;14.75;56.39
65470;DHT22;52067;50.710;14.492;2023-10-08T15:28:32;14.77;55.62
65470;DHT22;52067;50.710;14.492;2023-10-08T15:30:58;14.58;57.36
65470;DHT22;52067;50.710;14.492;2023-10-08T15:33:23;14.58;57.84
65470;DHT22;52067;50.710;14.492;2023-10-08T15:35:51;14.48;58.74
65470;DHT22;52067;50.710;14.492;2023-10-08T15:38:17;14.17;60.18
65470;DHT22;52067;50.710;14.492;2023-10-08T15:40:42;14.05;59.85